createdAt,value
2019-03-10T00:01:41.001Z,8.50
2019-03-10T00:04:24.995Z,8.60
2019-03-10T00:07:08.358Z,8.60
2019-03-10T00:09:49.828Z,8.70
2019-03-10T00:12:31.758Z,8.70
2019-03-10T00:15:14.446Z,8.70
2019-03-10T00:17:56.251Z,8.80
2019-03-10T00:20:40.854Z,8.80
2019-03-10T00:23:23.070Z,8.80
2019-03-10T00:26:05.019Z,8.80
2019-03-10T00:28:47.241Z,8.80
2019-03-10T00:31:29.446Z,8.90
2019-03-10T00:34:11.430Z,8.80
2019-03-10T00:36:53.673Z,8.90
2019-03-10T00:39:35.967Z,8.90
2019-03-10T00:42:18.068Z,8.90
2019-03-10T00:45:02.142Z,8.90
2019-03-10T00:47:44.457Z,8.80
2019-03-10T00:50:27.607Z,8.90
2019-03-10T00:53:09.799Z,8.90
2019-03-10T00:55:51.862Z,8.90
2019-03-10T00:58:22.137Z,8.90
2019-03-10T01:01:04.342Z,8.80
2019-03-10T01:03:46.718Z,8.90
2019-03-10T01:06:28.902Z,8.80
2019-03-10T01:09:10.915Z,8.80
2019-03-10T01:11:53.221Z,8.80
2019-03-10T01:14:23.563Z,8.90
2019-03-10T01:17:06.897Z,8.80
2019-03-10T01:19:48.534Z,8.80
2019-03-10T01:22:30.621Z,8.80
2019-03-10T01:25:12.686Z,8.80
2019-03-10T01:27:54.615Z,8.80
2019-03-10T01:30:36.437Z,8.80
2019-03-10T01:33:20.081Z,8.80
2019-03-10T01:36:01.836Z,8.80
2019-03-10T01:38:43.848Z,8.80
2019-03-10T01:41:28.174Z,8.80
2019-03-10T01:44:10.531Z,8.80
2019-03-10T01:46:52.862Z,8.80
2019-03-10T01:49:35.041Z,8.80
2019-03-10T01:52:16.926Z,8.80
2019-03-10T01:54:59.236Z,8.80
2019-03-10T01:57:41.284Z,8.70
2019-03-10T02:00:23.839Z,8.70
2019-03-10T02:03:05.950Z,8.60
2019-03-10T02:09:10.426Z,8.50
2019-03-10T02:11:52.463Z,8.50
2019-03-10T02:14:34.561Z,8.50
2019-03-10T02:17:17.593Z,8.50
2019-03-10T02:19:59.585Z,8.50
2019-03-10T02:22:41.809Z,8.50
2019-03-10T02:25:23.669Z,8.50
2019-03-10T02:28:05.761Z,8.60
2019-03-10T02:30:47.418Z,8.50
2019-03-10T02:33:30.544Z,8.40
2019-03-10T02:36:14.935Z,8.40
2019-03-10T02:38:56.949Z,8.40
2019-03-10T02:41:39.039Z,8.40
2019-03-10T02:44:20.922Z,8.40
2019-03-10T02:47:03.214Z,8.40
2019-03-10T02:49:47.089Z,8.40
2019-03-10T02:52:29.306Z,8.40
2019-03-10T02:55:11.078Z,8.40
2019-03-10T02:57:53.049Z,8.40
2019-03-10T03:00:35.165Z,8.50
2019-03-10T03:03:17.152Z,8.50
2019-03-10T03:05:59.342Z,8.50
2019-03-10T03:08:41.375Z,8.50
2019-03-10T03:11:23.492Z,8.50
2019-03-10T03:14:05.527Z,8.50
2019-03-10T03:16:47.492Z,8.60
2019-03-10T03:19:29.618Z,8.60
2019-03-10T03:22:11.488Z,8.50
2019-03-10T03:24:53.281Z,8.40
2019-03-10T03:27:36.028Z,8.30
2019-03-10T03:30:18.343Z,8.30
2019-03-10T03:33:01.695Z,8.20
2019-03-10T03:35:44.595Z,8.20
2019-03-10T03:38:26.849Z,8.10
2019-03-10T03:41:08.960Z,8.10
2019-03-10T03:46:49.431Z,8.00
2019-03-10T03:49:31.366Z,8.00
2019-03-10T03:52:13.938Z,8.00
2019-03-10T03:54:56.170Z,8.00
2019-03-10T03:57:38.340Z,7.90
2019-03-10T04:00:20.459Z,7.90
2019-03-10T04:03:02.786Z,7.80
2019-03-10T04:05:44.755Z,7.70
2019-03-10T04:08:26.625Z,7.70
2019-03-10T04:11:08.764Z,7.60
2019-03-10T04:13:50.712Z,7.50
2019-03-10T04:16:32.959Z,7.40
2019-03-10T04:19:14.577Z,7.30
2019-03-10T04:21:57.792Z,7.20
2019-03-10T04:24:39.950Z,7.20
2019-03-10T04:27:10.171Z,7.10
2019-03-10T04:29:40.459Z,7.10
2019-03-10T04:32:29.743Z,7.00
2019-03-10T04:35:11.518Z,7.10
2019-03-10T04:37:53.493Z,7.00
2019-03-10T04:40:35.635Z,7.00
2019-03-10T04:43:17.614Z,6.90
2019-03-10T04:45:59.184Z,6.90
2019-03-10T04:48:41.457Z,6.90
2019-03-10T04:51:23.349Z,6.90
2019-03-10T04:54:06.636Z,6.80
2019-03-10T04:56:59.039Z,6.80
2019-03-10T04:59:46.710Z,6.80
2019-03-10T05:02:28.938Z,6.80
2019-03-10T05:05:11.102Z,6.90
2019-03-10T05:07:53.110Z,7.00
2019-03-10T05:10:35.185Z,7.00
2019-03-10T05:13:17.520Z,6.90
2019-03-10T05:15:59.256Z,6.90
2019-03-10T05:18:41.154Z,6.90
2019-03-10T05:21:24.106Z,6.90
2019-03-10T05:24:06.449Z,6.90
2019-03-10T05:26:48.442Z,7.00
2019-03-10T05:29:30.266Z,6.90
2019-03-10T05:32:12.542Z,6.90
2019-03-10T05:34:54.378Z,6.90
2019-03-10T05:37:36.296Z,6.80
2019-03-10T05:40:21.190Z,6.90
2019-03-10T05:43:04.912Z,6.90
2019-03-10T05:45:46.528Z,6.90
2019-03-10T05:48:28.441Z,6.90
2019-03-10T05:51:10.546Z,6.90
2019-03-10T05:53:51.949Z,6.90
2019-03-10T05:56:36.926Z,6.70
2019-03-10T05:59:18.932Z,6.70
2019-03-10T06:02:00.877Z,6.70
2019-03-10T06:04:42.933Z,6.60
2019-03-10T06:07:24.714Z,6.60
2019-03-10T06:10:08.602Z,6.60
2019-03-10T06:12:50.086Z,6.70
2019-03-10T06:15:35.112Z,6.70
2019-03-10T06:18:16.888Z,6.70
2019-03-10T06:20:58.855Z,6.80
2019-03-10T06:23:40.991Z,6.80
2019-03-10T06:26:23.161Z,6.80
2019-03-10T06:28:58.810Z,6.70
2019-03-10T06:31:48.498Z,6.70
2019-03-10T06:34:30.454Z,6.80
2019-03-10T06:37:13.683Z,6.80
2019-03-10T06:39:55.858Z,6.70
2019-03-10T06:42:37.685Z,6.70
2019-03-10T06:45:19.639Z,6.70
2019-03-10T06:48:01.399Z,6.80
2019-03-10T06:50:31.689Z,6.80
2019-03-10T06:53:20.993Z,6.90
2019-03-10T06:56:03.138Z,6.90
2019-03-10T06:58:45.029Z,7.00
2019-03-10T07:01:26.719Z,7.10
2019-03-10T07:04:08.970Z,7.10
2019-03-10T07:06:51.623Z,7.20
2019-03-10T07:09:34.024Z,7.30
2019-03-10T07:12:16.091Z,7.40
2019-03-10T07:14:58.080Z,7.50
2019-03-10T07:17:40.110Z,7.50
2019-03-10T07:20:21.946Z,7.60
2019-03-10T07:23:05.631Z,7.60
2019-03-10T07:25:50.689Z,7.70
2019-03-10T07:28:35.202Z,7.80
2019-03-10T07:31:27.808Z,7.80
2019-03-10T07:34:28.643Z,8.00
2019-03-10T07:37:29.769Z,8.10
2019-03-10T07:40:37.271Z,8.30
2019-03-10T07:43:32.422Z,8.40
2019-03-10T07:46:34.515Z,8.50
2019-03-10T07:49:35.388Z,8.60
2019-03-10T07:52:32.725Z,8.70
2019-03-10T07:55:34.896Z,8.90
2019-03-10T07:58:24.350Z,9.10
2019-03-10T08:01:25.138Z,9.20
2019-03-10T08:04:26.140Z,9.30
2019-03-10T08:07:26.916Z,9.50
2019-03-10T08:13:28.866Z,10.00
2019-03-10T08:16:06.545Z,10.10
2019-03-10T08:18:54.068Z,10.30
2019-03-10T08:22:01.519Z,10.50
2019-03-10T08:25:02.003Z,10.60
2019-03-10T08:28:06.094Z,10.70
2019-03-10T08:31:06.898Z,11.00
2019-03-10T08:33:56.153Z,11.20
2019-03-10T08:36:59.475Z,11.30
2019-03-10T08:40:00.619Z,11.40
2019-03-10T08:43:01.323Z,11.60
2019-03-10T08:45:55.176Z,11.70
2019-03-10T08:51:58.841Z,12.00
2019-03-10T08:54:59.906Z,12.00
2019-03-10T08:58:06.938Z,12.00
2019-03-10T09:01:09.975Z,12.00
2019-03-10T09:04:19.858Z,12.10
2019-03-10T09:07:13.628Z,12.00
2019-03-10T09:10:10.579Z,12.00
2019-03-10T09:13:11.490Z,12.30
2019-03-10T09:16:01.314Z,12.70
2019-03-10T09:19:02.569Z,12.90
2019-03-10T09:22:01.515Z,12.90
2019-03-10T09:24:55.951Z,12.90
2019-03-10T09:27:45.153Z,13.00
2019-03-10T09:30:47.095Z,13.10
2019-03-10T09:33:40.827Z,13.10
2019-03-10T09:36:20.083Z,13.10
2019-03-10T09:39:49.173Z,12.90
2019-03-10T09:42:49.682Z,12.80
2019-03-10T09:45:53.392Z,12.80
2019-03-10T09:48:45.791Z,13.00
2019-03-10T09:51:39.544Z,13.00
2019-03-10T09:54:29.119Z,13.10
2019-03-10T09:57:30.659Z,13.10
2019-03-10T10:00:19.187Z,13.10
2019-03-10T10:03:29.059Z,13.00
2019-03-10T10:06:33.471Z,13.00
2019-03-10T10:12:30.560Z,13.30
2019-03-10T10:15:31.939Z,13.30
2019-03-10T10:18:33.363Z,13.40
2019-03-10T10:21:26.732Z,13.60
2019-03-10T10:24:22.415Z,13.80
2019-03-10T10:27:22.935Z,13.80
2019-03-10T10:30:31.485Z,13.70
2019-03-10T10:33:32.756Z,13.50
2019-03-10T10:36:36.590Z,13.20
2019-03-10T10:39:37.858Z,12.90
2019-03-10T10:42:34.747Z,12.60
2019-03-10T10:45:36.722Z,12.40
2019-03-10T10:48:26.316Z,12.40
2019-03-10T10:51:30.031Z,12.50
2019-03-10T10:54:27.019Z,12.60
2019-03-10T10:57:26.321Z,12.60
2019-03-10T11:00:17.434Z,12.70
2019-03-10T11:03:13.222Z,12.70
2019-03-10T11:06:14.042Z,12.70
2019-03-10T11:09:07.182Z,12.70
2019-03-10T11:12:10.870Z,12.70
2019-03-10T11:15:12.271Z,12.90
2019-03-10T11:18:12.986Z,13.00
2019-03-10T11:21:05.326Z,13.10
2019-03-10T11:24:06.183Z,13.10
2019-03-10T11:27:03.770Z,13.20
2019-03-10T11:30:04.913Z,13.20
2019-03-10T11:33:05.821Z,13.40
2019-03-10T11:35:54.946Z,13.60
2019-03-10T11:38:43.112Z,13.80
2019-03-10T11:41:34.077Z,14.10
2019-03-10T11:44:43.304Z,14.20
2019-03-10T11:47:43.782Z,14.30
2019-03-10T11:50:44.568Z,14.30
2019-03-10T11:53:51.490Z,14.20
2019-03-10T11:56:42.162Z,14.00
2019-03-10T11:59:49.219Z,13.90
2019-03-10T12:02:38.766Z,13.70
2019-03-10T12:05:39.144Z,13.60
2019-03-10T12:08:40.481Z,13.50
2019-03-10T12:11:22.759Z,13.50
2019-03-10T12:14:05.066Z,13.40
2019-03-10T12:16:47.069Z,13.20
2019-03-10T12:19:28.989Z,13.10
2019-03-10T12:22:10.979Z,13.00
2019-03-10T12:24:53.043Z,13.00
2019-03-10T12:27:23.533Z,13.00
2019-03-10T12:30:12.913Z,13.10
2019-03-10T12:32:54.966Z,13.20
2019-03-10T12:35:34.002Z,13.50
2019-03-10T12:38:14.374Z,13.60
2019-03-10T12:40:56.382Z,13.70
2019-03-10T12:43:26.617Z,13.60
2019-03-10T12:46:15.882Z,13.50
2019-03-10T12:48:59.750Z,13.40
2019-03-10T12:51:41.942Z,13.40
2019-03-10T12:54:24.156Z,13.30
2019-03-10T12:57:06.183Z,13.30
2019-03-10T12:59:48.920Z,13.20
2019-03-10T13:02:30.939Z,13.20
2019-03-10T13:05:13.338Z,13.10
2019-03-10T13:07:55.624Z,13.20
2019-03-10T13:10:26.162Z,13.20
2019-03-10T13:13:08.202Z,13.20
2019-03-10T13:15:50.127Z,13.20
2019-03-10T13:18:32.199Z,13.20
2019-03-10T13:21:14.460Z,13.20
2019-03-10T13:23:56.742Z,13.20
2019-03-10T13:26:27.199Z,13.20
2019-03-10T13:29:09.253Z,13.30
2019-03-10T13:31:51.331Z,13.30
2019-03-10T13:34:33.883Z,13.50
2019-03-10T13:37:15.909Z,13.50
2019-03-10T13:39:57.836Z,13.30
2019-03-10T13:42:29.714Z,13.30
2019-03-10T13:45:11.843Z,13.30
2019-03-10T13:47:53.406Z,13.40
2019-03-10T13:50:35.353Z,13.20
2019-03-10T13:53:17.418Z,13.10
2019-03-10T13:55:59.654Z,13.30
2019-03-10T13:58:29.979Z,13.20
2019-03-10T14:01:12.135Z,13.00
2019-03-10T14:03:54.009Z,12.90
2019-03-10T14:06:36.136Z,12.80
2019-03-10T14:09:18.355Z,12.60
2019-03-10T14:12:00.411Z,12.50
2019-03-10T14:14:31.067Z,12.60
2019-03-10T14:17:20.422Z,12.60
2019-03-10T14:20:01.885Z,12.70
2019-03-10T14:22:43.709Z,12.70
2019-03-10T14:25:14.654Z,12.70
2019-03-10T14:27:56.262Z,12.30
2019-03-10T14:30:38.300Z,11.90
2019-03-10T14:33:20.195Z,11.70
2019-03-10T14:36:02.472Z,11.50
2019-03-10T14:38:32.750Z,11.30
2019-03-10T14:41:14.628Z,11.10
2019-03-10T14:43:57.026Z,11.20
2019-03-10T14:46:38.982Z,11.30
2019-03-10T14:49:23.534Z,11.40
2019-03-10T14:52:04.818Z,11.30
2019-03-10T14:54:50.029Z,11.30
2019-03-10T14:57:32.249Z,11.40
2019-03-10T15:00:14.698Z,11.50
2019-03-10T15:02:56.391Z,11.50
2019-03-10T15:05:38.615Z,11.50
2019-03-10T15:08:20.291Z,11.50
2019-03-10T15:11:02.240Z,11.50
2019-03-10T15:13:44.590Z,11.40
2019-03-10T15:16:26.791Z,11.20
2019-03-10T15:19:08.898Z,11.10
2019-03-10T15:21:51.152Z,11.10
2019-03-10T15:24:33.077Z,10.90
2019-03-10T15:27:23.067Z,10.70
2019-03-10T15:29:48.900Z,10.60
2019-03-10T15:32:19.432Z,10.60
2019-03-10T15:35:04.933Z,10.60
2019-03-10T15:37:46.742Z,10.60
2019-03-10T15:40:28.914Z,10.50
2019-03-10T15:43:10.855Z,10.50
2019-03-10T15:45:52.741Z,10.40
2019-03-10T15:48:35.070Z,10.20
2019-03-10T15:51:17.015Z,10.10
2019-03-10T15:53:59.238Z,10.10
2019-03-10T15:56:41.138Z,10.00
2019-03-10T15:59:23.361Z,10.00
2019-03-10T16:02:06.425Z,10.00
2019-03-10T16:04:48.324Z,10.00
2019-03-10T16:07:30.446Z,9.90
2019-03-10T16:10:13.349Z,9.80
2019-03-10T16:12:55.023Z,9.70
2019-03-10T16:15:25.404Z,9.60
2019-03-10T16:18:15.167Z,9.40
2019-03-10T16:20:45.464Z,9.20
2019-03-10T16:23:15.706Z,9.00
2019-03-10T16:25:58.022Z,8.80
2019-03-10T16:28:41.827Z,8.60
2019-03-10T16:31:24.217Z,8.40
2019-03-10T16:34:06.264Z,8.20
2019-03-10T16:36:48.147Z,8.00
2019-03-10T16:39:29.582Z,7.80
2019-03-10T16:42:13.667Z,7.70
2019-03-10T16:44:56.611Z,7.70
2019-03-10T16:47:38.036Z,7.60
2019-03-10T16:50:20.147Z,7.50
2019-03-10T16:53:02.459Z,7.50
2019-03-10T16:55:44.162Z,7.50
2019-03-10T16:58:26.629Z,7.50
2019-03-10T17:01:08.875Z,7.50
2019-03-10T17:03:50.619Z,7.40
2019-03-10T17:06:32.823Z,7.40
2019-03-10T17:09:14.823Z,7.50
2019-03-10T17:11:56.902Z,7.50
2019-03-10T17:14:39.063Z,7.40
2019-03-10T17:17:21.301Z,7.50
2019-03-10T17:20:03.493Z,7.50
2019-03-10T17:22:45.464Z,7.40
2019-03-10T17:25:27.327Z,7.40
2019-03-10T17:28:09.190Z,7.40
2019-03-10T17:30:52.391Z,7.40
2019-03-10T17:33:34.612Z,7.30
2019-03-10T17:36:16.804Z,7.30
2019-03-10T17:38:59.040Z,7.20
2019-03-10T17:41:41.291Z,7.10
2019-03-10T17:44:24.110Z,7.10
2019-03-10T17:47:08.313Z,7.10
2019-03-10T17:49:50.115Z,7.10
2019-03-10T17:52:33.134Z,7.20
2019-03-10T17:55:15.168Z,7.20
2019-03-10T17:57:57.284Z,7.20
2019-03-10T18:00:39.927Z,7.20
2019-03-10T18:03:21.499Z,7.20
2019-03-10T18:06:03.475Z,7.20
2019-03-10T18:08:45.830Z,7.20
2019-03-10T18:11:27.934Z,7.30
2019-03-10T18:14:10.090Z,7.30
2019-03-10T18:16:52.486Z,7.20
2019-03-10T18:19:35.272Z,7.20
2019-03-10T18:22:18.487Z,7.10
2019-03-10T18:25:00.684Z,7.10
2019-03-10T18:27:42.430Z,7.00
2019-03-10T18:30:24.553Z,7.00
2019-03-10T18:33:06.550Z,7.00
2019-03-10T18:35:48.643Z,7.00
2019-03-10T18:38:30.516Z,7.00
2019-03-10T18:41:13.798Z,7.00
2019-03-10T18:43:55.873Z,7.00
2019-03-10T18:46:38.116Z,7.00
2019-03-10T18:49:20.442Z,7.00
2019-03-10T18:51:50.785Z,7.10
2019-03-10T18:54:40.044Z,7.10
2019-03-10T18:57:21.635Z,7.00
2019-03-10T19:00:03.759Z,7.10
2019-03-10T19:02:45.659Z,7.10
2019-03-10T19:05:28.756Z,7.10
2019-03-10T19:08:11.028Z,7.10
2019-03-10T19:10:53.177Z,7.10
2019-03-10T19:13:35.491Z,7.20
2019-03-10T19:16:05.841Z,7.20
2019-03-10T19:18:47.796Z,7.20
2019-03-10T19:21:29.506Z,7.20
2019-03-10T19:24:11.544Z,7.10
2019-03-10T19:26:53.646Z,7.10
2019-03-10T19:29:35.555Z,7.00
2019-03-10T19:32:17.436Z,7.00
2019-03-10T19:34:59.443Z,7.00
2019-03-10T19:37:41.493Z,6.90
2019-03-10T19:40:24.709Z,6.90
2019-03-10T19:43:06.479Z,6.80
2019-03-10T19:45:48.489Z,6.80
2019-03-10T19:48:30.822Z,6.70
2019-03-10T19:51:12.292Z,6.60
2019-03-10T19:53:54.307Z,6.60
2019-03-10T19:56:36.704Z,6.60
2019-03-10T19:59:18.700Z,6.50
2019-03-10T20:01:50.602Z,6.50
2019-03-10T20:04:40.086Z,6.50
2019-03-10T20:07:21.962Z,6.50
2019-03-10T20:10:03.979Z,6.40
2019-03-10T20:12:45.858Z,6.50
2019-03-10T20:15:28.304Z,6.40
2019-03-10T20:18:10.175Z,6.40
2019-03-10T20:20:54.931Z,6.50
2019-03-10T20:23:36.421Z,6.50
2019-03-10T20:26:06.936Z,6.60
2019-03-10T20:28:56.336Z,6.40
2019-03-10T20:31:38.110Z,6.20
2019-03-10T20:34:20.319Z,5.80
2019-03-10T20:37:03.806Z,5.60
2019-03-10T20:39:45.790Z,5.50
2019-03-10T20:42:27.778Z,5.40
2019-03-10T20:45:09.746Z,5.30
2019-03-10T20:47:52.162Z,5.30
2019-03-10T20:50:34.352Z,5.20
2019-03-10T20:53:16.551Z,5.10
2019-03-10T20:55:58.714Z,5.10
2019-03-10T20:58:40.998Z,5.10
2019-03-10T21:01:11.431Z,5.10
2019-03-10T21:04:00.740Z,5.10
2019-03-10T21:06:43.926Z,5.00
2019-03-10T21:09:14.212Z,4.70
2019-03-10T21:11:56.109Z,4.60
2019-03-10T21:14:38.006Z,4.50
2019-03-10T21:17:20.049Z,4.50
2019-03-10T21:20:02.143Z,4.30
2019-03-10T21:22:44.393Z,4.40
2019-03-10T21:25:26.440Z,4.20
2019-03-10T21:28:08.849Z,4.10
2019-03-10T21:30:50.812Z,3.80
2019-03-10T21:33:33.047Z,3.70
2019-03-10T21:36:15.029Z,3.50
2019-03-10T21:38:56.698Z,3.40
2019-03-10T21:41:38.944Z,3.40
2019-03-10T21:44:26.451Z,3.40
2019-03-10T21:46:53.437Z,3.40
2019-03-10T21:49:35.089Z,3.40
2019-03-10T21:52:19.110Z,3.50
2019-03-10T21:55:01.413Z,3.60
2019-03-10T21:57:43.668Z,3.60
2019-03-10T22:00:26.195Z,3.80
2019-03-10T22:03:08.358Z,3.90
2019-03-10T22:05:50.431Z,4.00
2019-03-10T22:08:32.675Z,4.10
2019-03-10T22:11:14.622Z,4.20
2019-03-10T22:13:56.431Z,4.30
2019-03-10T22:16:38.169Z,4.40
2019-03-10T22:19:22.992Z,4.40
2019-03-10T22:22:04.156Z,4.40
2019-03-10T22:24:46.205Z,4.40
2019-03-10T22:27:29.617Z,4.50
2019-03-10T22:30:11.928Z,4.50
2019-03-10T22:32:54.356Z,4.50
2019-03-10T22:35:36.145Z,4.60
2019-03-10T22:38:18.330Z,4.60
2019-03-10T22:41:00.014Z,4.60
2019-03-10T22:43:30.321Z,4.60
2019-03-10T22:46:22.819Z,4.60
2019-03-10T22:49:04.466Z,4.60
2019-03-10T22:51:46.448Z,4.60
2019-03-10T22:54:28.502Z,4.70
2019-03-10T22:56:58.755Z,4.70
2019-03-10T22:59:41.158Z,4.70
2019-03-10T23:02:23.095Z,4.80
2019-03-10T23:05:05.068Z,4.70
2019-03-10T23:07:47.354Z,4.70
2019-03-10T23:10:30.509Z,4.80
2019-03-10T23:13:12.465Z,4.80
2019-03-10T23:15:54.591Z,4.90
2019-03-10T23:18:36.520Z,4.80
2019-03-10T23:21:18.474Z,4.80
2019-03-10T23:24:00.589Z,4.80
2019-03-10T23:26:42.547Z,4.80
2019-03-10T23:29:24.750Z,4.80
2019-03-10T23:32:07.004Z,4.80
2019-03-10T23:34:49.177Z,4.70
2019-03-10T23:37:33.078Z,4.80
2019-03-10T23:40:15.190Z,4.70
2019-03-10T23:42:45.497Z,4.80
2019-03-10T23:45:15.786Z,4.80
2019-03-10T23:48:05.027Z,4.80
2019-03-10T23:50:46.992Z,4.80
2019-03-10T23:53:29.067Z,4.80
2019-03-10T23:56:11.138Z,4.80
2019-03-10T23:58:53.459Z,4.90
